Time;durP1;ratioP1;P1;durP2;ratioP2;P2;SDS_P1;SDS_P2;PMS_P1;PMS_P2;Temp;Humidity;BMP_temperature;BMP_pressure;BME280_temperature;BME280_humidity;BME280_pressure;Samples;Min_cycle;Max_cycle;Signal;HPM_P1;HPM_P2
2022/04/05 00:01:31;;;;;;;12.93;2.45;;;;;;;13.46;47.56;100750.34;4932821;29;20410;-70
2022/04/05 00:04:00;;;;;;;15.93;2.42;;;;;;;13.35;48.54;100738.88;4932595;29;20052;-70
2022/04/05 00:06:28;;;;;;;9.88;2.22;;;;;;;13.23;49.33;100762.03;4932414;29;20051;-70
2022/04/05 00:08:57;;;;;;;14.07;2.70;;;;;;;13.09;50.02;100751.38;4932272;29;20425;-71
2022/04/05 00:11:27;;;;;;;10.40;1.98;;;;;;;12.97;50.05;100749.41;4932351;29;20103;-71
2022/04/05 00:13:55;;;;;;;6.70;1.50;;;;;;;12.79;51.21;100760.31;4932449;29;20270;-70
2022/04/05 00:16:24;;;;;;;6.70;1.35;;;;;;;12.70;52.77;100780.88;4932119;29;20139;-70
2022/04/05 00:18:52;;;;;;;8.55;1.88;;;;;;;12.41;55.27;100782.84;4932586;29;20107;-70
2022/04/05 00:21:21;;;;;;;7.13;1.77;;;;;;;12.08;58.62;100770.84;4931767;29;20048;-70
2022/04/05 00:23:49;;;;;;;9.07;1.83;;;;;;;12.01;60.28;100784.53;4932149;29;20091;-71
2022/04/05 00:26:18;;;;;;;6.95;1.80;;;;;;;12.06;60.99;100764.75;4935395;29;20558;-72
2022/04/05 00:28:48;;;;;;;6.60;1.27;;;;;;;12.16;62.62;100782.28;4932736;29;20506;-69
2022/04/05 00:31:16;;;;;;;4.68;1.27;;;;;;;12.20;62.14;100784.09;4947992;29;20549;-70
2022/04/05 00:33:45;;;;;;;11.25;2.05;;;;;;;12.17;61.58;100789.22;4951250;28;20078;-69
2022/04/05 00:36:14;;;;;;;8.63;2.25;;;;;;;12.09;61.54;100775.19;4950569;28;20051;-70
2022/04/05 00:38:42;;;;;;;6.28;1.73;;;;;;;11.68;62.07;100781.09;4950828;28;20179;-74
2022/04/05 00:41:11;;;;;;;10.38;2.45;;;;;;;11.33;63.67;100791.41;4950591;29;20059;-71
2022/04/05 00:43:40;;;;;;;9.95;2.13;;;;;;;11.30;66.26;100785.28;4950478;28;20134;-69
2022/04/05 00:46:10;;;;;;;6.53;1.17;;;;;;;11.32;65.30;100796.56;4950647;28;20051;-70
2022/04/05 00:48:50;;;;;;;6.90;1.50;;;;;;;11.37;65.64;100791.50;4950279;28;20103;-71
2022/04/05 00:51:19;;;;;;;8.73;1.80;;;;;;;11.38;65.74;100809.66;4950910;28;20050;-71
2022/04/05 00:53:49;;;;;;;7.85;1.55;;;;;;;11.36;67.36;100816.53;4936438;28;20051;-69
2022/04/05 00:56:18;;;;;;;8.13;1.35;;;;;;;11.27;65.30;100805.91;4931356;29;20142;-70
2022/04/05 00:58:50;;;;;;;10.52;1.95;;;;;;;11.28;64.81;100815.44;4931945;29;20047;-72
2022/04/05 01:01:21;;;;;;;7.90;1.83;;;;;;;11.23;65.65;100825.69;4932046;29;20111;-69
2022/04/05 01:03:53;;;;;;;14.48;2.80;;;;;;;11.17;66.15;100819.44;4931137;29;20087;-68
2022/04/05 01:06:25;;;;;;;8.50;1.95;;;;;;;11.13;64.37;100830.53;4931493;29;20039;-67
2022/04/05 01:08:54;;;;;;;13.98;1.65;;;;;;;11.08;64.73;100831.28;4931276;29;20044;-70
2022/04/05 01:11:23;;;;;;;6.38;1.35;;;;;;;11.03;65.90;100830.28;4931596;29;20450;-68
2022/04/05 01:13:52;;;;;;;8.68;1.45;;;;;;;11.10;67.76;100855.50;4931537;29;20115;-69
2022/04/05 01:16:23;;;;;;;11.30;1.40;;;;;;;11.07;65.15;100876.16;4931743;29;20110;-71
2022/04/05 01:18:51;;;;;;;6.13;1.35;;;;;;;11.08;64.25;100879.63;4931387;29;20465;-71
2022/04/05 01:21:20;;;;;;;10.23;1.75;;;;;;;11.02;64.91;100879.44;4932321;29;20506;-71
2022/04/05 01:24:10;;;;;;;7.72;1.88;;;;;;;10.99;64.47;100887.09;4933233;29;20052;-68
2022/04/05 01:26:43;;;;;;;6.05;1.67;;;;;;;10.94;65.08;100901.63;4931905;29;20055;-70
2022/04/05 01:29:12;;;;;;;6.22;1.70;;;;;;;10.93;65.60;100907.66;4931350;29;20046;-68
2022/04/05 01:31:43;;;;;;;6.30;1.33;;;;;;;10.92;66.07;100905.88;4911885;29;20124;-67
2022/04/05 01:34:12;;;;;;;7.03;1.40;;;;;;;10.92;65.84;100911.94;4912353;29;20639;-69
2022/04/05 01:36:44;;;;;;;6.75;1.25;;;;;;;10.89;62.53;100910.13;4916309;29;20047;-68
2022/04/05 01:39:16;;;;;;;5.60;1.38;;;;;;;10.89;64.33;100906.66;4952133;28;20054;-67
2022/04/05 01:41:45;;;;;;;7.32;1.27;;;;;;;10.84;62.82;100905.66;4956723;28;20043;-67
2022/04/05 01:44:16;;;;;;;8.88;1.77;;;;;;;10.77;59.39;100901.13;4956415;28;20058;-68
2022/04/05 01:46:45;;;;;;;12.40;1.90;;;;;;;10.69;59.45;100893.97;4956524;28;20137;-68
2022/04/05 01:49:15;;;;;;;7.47;1.52;;;;;;;10.62;58.86;100902.38;4956527;28;20509;-69
2022/04/05 01:51:45;;;;;;;6.90;1.00;;;;;;;10.56;59.92;100916.84;4956492;28;20063;-68
2022/04/05 01:54:17;;;;;;;10.57;1.38;;;;;;;10.47;60.46;100907.09;4938278;28;20051;-70
2022/04/05 01:56:48;;;;;;;11.02;1.77;;;;;;;10.46;59.91;100910.50;4936907;29;20048;-70
2022/04/05 01:59:18;;;;;;;11.02;1.33;;;;;;;10.39;59.73;100919.75;4937520;29;20119;-70
2022/04/05 02:01:46;;;;;;;5.53;1.30;;;;;;;10.24;58.81;100914.94;4936825;28;20510;-68
2022/04/05 02:04:15;;;;;;;6.40;1.30;;;;;;;10.14;59.99;100919.75;4936867;29;20067;-69
2022/04/05 02:06:45;;;;;;;11.65;1.40;;;;;;;10.00;59.71;100908.94;4937743;29;20079;-69
2022/04/05 02:09:16;;;;;;;2.88;0.80;;;;;;;9.90;58.20;100917.22;4937067;28;20082;-68
2022/04/05 02:11:45;;;;;;;7.70;1.00;;;;;;;9.69;57.49;100917.31;4937431;29;20084;-68
2022/04/05 02:14:14;;;;;;;7.10;0.93;;;;;;;9.52;58.06;100909.84;4936900;29;20051;-69
2022/04/05 02:16:43;;;;;;;3.33;0.80;;;;;;;9.32;59.14;100895.31;4937765;29;20059;-69
2022/04/05 02:19:12;;;;;;;5.57;1.10;;;;;;;9.33;59.53;100928.06;4941387;29;20044;-68
2022/04/05 02:21:40;;;;;;;6.80;0.88;;;;;;;9.23;60.39;100926.84;4937436;29;20051;-68
2022/04/05 02:24:09;;;;;;;4.40;1.08;;;;;;;9.12;61.28;100936.78;4936694;29;20458;-68
2022/04/05 02:26:39;;;;;;;3.33;0.77;;;;;;;9.02;60.71;100945.88;4936730;29;20498;-68
2022/04/05 02:29:07;;;;;;;4.70;0.73;;;;;;;8.93;62.32;100950.69;4936923;29;20047;-69
2022/04/05 02:31:36;;;;;;;2.25;0.40;;;;;;;8.86;62.10;100963.25;4955392;29;20122;-71
2022/04/05 02:34:04;;;;;;;4.20;0.93;;;;;;;8.79;63.63;100975.03;4955994;28;20565;-70
2022/04/05 02:36:33;;;;;;;5.00;1.17;;;;;;;8.70;64.48;100975.53;4955626;28;20058;-70
2022/04/05 02:39:01;;;;;;;1.75;0.50;;;;;;;8.71;66.05;100997.94;4955675;28;20131;-70
2022/04/05 02:41:30;;;;;;;4.97;0.43;;;;;;;8.66;68.48;100999.47;4955970;28;20051;-70
2022/04/05 02:44:00;;;;;;;4.57;0.88;;;;;;;8.58;68.12;101006.88;4954044;28;20057;-70
2022/04/05 02:46:29;;;;;;;2.72;0.80;;;;;;;8.50;70.13;101028.91;4956157;29;20055;-70
2022/04/05 02:48:58;;;;;;;5.05;0.60;;;;;;;8.44;70.29;101036.38;4956052;28;20094;-70
2022/04/05 02:51:26;;;;;;;9.48;0.82;;;;;;;8.31;73.23;101059.81;4953385;28;21070;-71
2022/04/05 02:53:55;;;;;;;5.30;0.82;;;;;;;8.26;73.39;101069.06;4937428;28;20517;-69
2022/04/05 02:56:23;;;;;;;3.55;0.80;;;;;;;8.19;74.09;101052.44;4934182;29;20063;-69
2022/04/05 02:58:53;;;;;;;3.70;1.00;;;;;;;8.09;75.36;101042.56;4934032;29;20395;-70
2022/04/05 03:01:23;;;;;;;10.85;0.90;;;;;;;8.03;75.04;101042.28;4933784;29;20198;-68
2022/04/05 03:03:54;;;;;;;4.28;0.93;;;;;;;7.92;76.54;101047.81;4933897;29;20102;-69
2022/04/05 03:06:23;;;;;;;3.88;0.65;;;;;;;7.86;76.23;101052.72;4933265;29;20147;-69
2022/04/05 03:08:56;;;;;;;3.90;0.80;;;;;;;7.85;76.11;101047.47;4933824;29;20115;-69
2022/04/05 03:11:24;;;;;;;;;;;;;;;7.83;76.53;101051.69;4934018;29;20566;-68
2022/04/05 03:13:58;;;;;;;0.55;0.43;;;;;;;7.79;77.76;101058.41;4933715;29;20397;-69
2022/04/05 03:16:28;;;;;;;1.08;0.60;;;;;;;7.72;76.40;101067.53;4936901;29;20107;-69
2022/04/05 03:18:57;;;;;;;2.17;0.45;;;;;;;7.67;76.85;101086.16;4933576;29;20541;-68
2022/04/05 03:21:26;;;;;;;2.55;0.45;;;;;;;7.52;78.32;101078.63;4933314;29;20462;-72
2022/04/05 03:23:54;;;;;;;0.98;0.22;;;;;;;7.44;79.07;101092.81;4932716;29;20111;-73
2022/04/05 03:26:25;;;;;;;2.20;0.45;;;;;;;7.39;79.35;101113.19;4932611;29;20051;-73
2022/04/05 03:28:54;;;;;;;2.75;0.70;;;;;;;7.33;80.62;101116.34;4933155;29;20588;-71
2022/04/05 03:31:22;;;;;;;3.42;0.80;;;;;;;7.27;81.58;101116.06;4950126;29;20174;-72
2022/04/05 03:33:54;;;;;;;6.15;0.52;;;;;;;7.23;81.48;101118.41;4952372;28;20398;-72
2022/04/05 03:36:22;;;;;;;1.48;0.52;;;;;;;7.17;81.96;101116.44;4952011;28;20132;-73
2022/04/05 03:38:51;;;;;;;3.30;0.50;;;;;;;7.14;82.49;101113.69;4951806;28;20505;-71
2022/04/05 03:41:19;;;;;;;4.18;1.25;;;;;;;7.08;82.80;101119.41;4952113;28;20052;-72
2022/04/05 03:43:48;;;;;;;2.28;0.20;;;;;;;7.05;84.00;101118.38;4951832;28;20058;-71
2022/04/05 03:46:16;;;;;;;2.30;0.35;;;;;;;7.03;85.63;101117.41;4952019;28;20134;-72
2022/04/05 03:48:45;;;;;;;0.90;0.40;;;;;;;7.01;87.08;101131.88;4951750;28;20102;-71
2022/04/05 03:51:16;;;;;;;1.70;0.43;;;;;;;6.97;89.11;101130.88;4952210;28;20051;-71
2022/04/05 03:53:44;;;;;;;6.03;0.57;;;;;;;6.89;89.56;101127.94;4903919;29;20060;-71
2022/04/05 03:56:13;;;;;;;10.00;0.95;;;;;;;6.89;90.16;101158.78;4894624;29;20056;-71
2022/04/05 03:58:41;;;;;;;1.95;0.80;;;;;;;6.85;89.06;101163.66;4894818;29;20084;-73
2022/04/05 04:01:09;;;;;;;4.93;0.85;;;;;;;6.86;89.16;101168.91;4895185;29;20049;-72
2022/04/05 04:03:38;;;;;;;8.57;0.68;;;;;;;6.85;89.48;101177.44;4893931;29;20080;-70
2022/04/05 04:06:10;;;;;;;4.90;1.00;;;;;;;6.79;89.25;101182.25;4894821;29;20064;-70
2022/04/05 04:08:40;;;;;;;2.00;0.40;;;;;;;6.74;89.31;101185.41;4894819;29;20049;-70
2022/04/05 04:11:08;;;;;;;4.53;0.85;;;;;;;6.72;90.28;101201.63;4894599;29;20052;-70
2022/04/05 04:13:37;;;;;;;4.15;0.90;;;;;;;6.65;90.49;101198.66;4903212;29;20052;-71
2022/04/05 04:16:06;;;;;;;2.35;0.35;;;;;;;6.64;90.69;101222.59;4914456;29;20108;-70
2022/04/05 04:18:34;;;;;;;0.80;0.30;;;;;;;6.48;90.01;101201.25;4913628;29;20443;-72
2022/04/05 04:23:34;;;;;;;1.73;0.40;;;;;;;6.52;90.71;101237.38;4958437;23;20114;-69
2022/04/05 04:26:05;;;;;;;4.05;0.60;;;;;;;6.48;91.96;101244.94;4951022;29;20090;-70
2022/04/05 04:28:34;;;;;;;2.42;0.75;;;;;;;6.46;91.95;101243.97;4951475;29;20199;-71
2022/04/05 04:31:03;;;;;;;2.65;0.45;;;;;;;6.45;91.99;101252.47;4950840;29;20051;-70
2022/04/05 04:33:40;;;;;;;3.05;0.50;;;;;;;6.44;91.72;101240.44;4950924;29;20059;-71
2022/04/05 04:36:09;;;;;;;2.90;0.80;;;;;;;6.41;91.37;101244.50;4951165;29;20051;-71
2022/04/05 04:38:37;;;;;;;0.50;0.43;;;;;;;6.37;91.52;101243.47;4950681;29;20093;-71
2022/04/05 04:41:08;;;;;;;2.85;0.93;;;;;;;6.25;91.69;101223.16;4951217;29;20047;-70
2022/04/05 04:43:36;;;;;;;4.20;0.73;;;;;;;6.30;91.32;101246.53;4951324;29;20082;-69
2022/04/05 04:46:05;;;;;;;3.63;0.68;;;;;;;6.28;91.42;101235.28;4951139;29;20473;-70
2022/04/05 04:48:34;;;;;;;4.30;1.23;;;;;;;6.28;91.26;101242.97;4933844;29;20047;-70
2022/04/05 04:51:09;;;;;;;4.60;0.82;;;;;;;6.28;90.88;101232.69;4950906;29;20078;-71
2022/04/05 04:53:38;;;;;;;1.58;0.65;;;;;;;6.26;91.65;101239.44;4950887;28;20051;-72
2022/04/05 04:56:08;;;;;;;4.80;0.60;;;;;;;6.24;91.51;101248.75;4951124;29;20115;-70
2022/04/05 04:58:37;;;;;;;4.50;0.85;;;;;;;6.23;91.56;101245.31;4950542;29;20118;-70
2022/04/05 05:01:05;;;;;;;3.55;1.05;;;;;;;6.24;91.56;101262.47;4951085;29;20556;-70
2022/04/05 05:03:34;;;;;;;8.48;0.63;;;;;;;6.23;91.96;101259.81;4950454;29;20047;-69
2022/04/05 05:06:03;;;;;;;4.38;0.98;;;;;;;6.21;91.91;101267.47;4951090;29;20107;-69
2022/04/05 05:08:31;;;;;;;3.60;0.60;;;;;;;6.11;92.14;101248.88;4950828;29;20047;-70
2022/04/05 05:11:00;;;;;;;1.58;0.63;;;;;;;6.18;91.79;101266.38;4952413;29;20051;-70
2022/04/05 05:13:31;;;;;;;8.02;1.08;;;;;;;6.15;91.54;101267.09;4952325;28;20106;-69
2022/04/05 05:16:00;;;;;;;4.55;2.05;;;;;;;6.18;92.10;101274.97;4951046;29;20058;-69
2022/04/05 05:18:28;;;;;;;8.05;1.13;;;;;;;6.13;93.08;101268.69;4951143;29;20127;-70
2022/04/05 05:20:57;;;;;;;4.18;0.68;;;;;;;6.10;100.00;101263.41;4950567;29;20080;-71
2022/04/05 05:23:25;;;;;;;3.72;0.70;;;;;;;6.03;100.00;101258.72;4950283;28;20169;-69
2022/04/05 05:25:54;;;;;;;3.47;1.10;;;;;;;5.91;100.00;101261.47;4950281;29;20107;-70
2022/04/05 05:28:22;;;;;;;1.13;0.47;;;;;;;5.85;100.00;101273.94;4950019;29;20055;-69
2022/04/05 05:30:52;;;;;;;6.90;1.38;;;;;;;5.81;100.00;101272.00;4950328;29;20051;-70
2022/04/05 05:33:21;;;;;;;6.32;1.10;;;;;;;5.77;100.00;101275.19;4950195;29;20145;-69
2022/04/05 05:35:50;;;;;;;4.65;0.90;;;;;;;5.79;100.00;101294.13;4950203;29;20055;-69
2022/04/05 05:38:18;;;;;;;5.88;1.13;;;;;;;5.82;100.00;101312.31;4949477;29;20565;-69
2022/04/05 05:40:47;;;;;;;4.55;0.70;;;;;;;5.82;100.00;101323.47;4950144;29;20134;-69
2022/04/05 05:43:15;;;;;;;3.58;0.88;;;;;;;5.87;100.00;101336.56;4949847;28;20063;-69
2022/04/05 05:45:44;;;;;;;4.65;0.95;;;;;;;5.90;100.00;101339.28;4950352;29;20541;-69
2022/04/05 05:48:14;;;;;;;5.70;0.90;;;;;;;5.95;100.00;101343.03;4949804;29;20469;-70
2022/04/05 05:50:43;;;;;;;4.72;0.77;;;;;;;5.97;100.00;101344.03;4949943;29;20043;-69
2022/04/05 05:53:11;;;;;;;3.38;0.70;;;;;;;6.00;100.00;101349.34;4950382;29;20533;-69
2022/04/05 05:55:40;;;;;;;6.97;1.10;;;;;;;6.04;100.00;101350.41;4950373;28;20051;-69
2022/04/05 05:58:08;;;;;;;4.90;0.60;;;;;;;6.05;100.00;101345.34;4950144;29;20057;-69
2022/04/05 06:00:37;;;;;;;2.40;0.68;;;;;;;6.06;100.00;101359.09;4950660;29;20113;-69
2022/04/05 06:03:05;;;;;;;7.22;1.58;;;;;;;6.11;100.00;101351.63;4950189;29;20048;-69
2022/04/05 06:05:36;;;;;;;8.07;0.93;;;;;;;6.16;100.00;101360.47;4950709;29;20145;-69
2022/04/05 06:08:05;;;;;;;4.63;0.82;;;;;;;6.18;100.00;101358.88;4950658;29;20532;-68
2022/04/05 06:10:33;;;;;;;1.90;0.52;;;;;;;6.22;100.00;101365.97;4952992;29;20529;-69
2022/04/05 06:13:02;;;;;;;4.78;0.60;;;;;;;6.19;100.00;101365.81;4950368;29;20122;-69
2022/04/05 06:15:30;;;;;;;3.80;0.70;;;;;;;6.17;100.00;101377.69;4950435;29;20098;-69
2022/04/05 06:17:59;;;;;;;2.53;0.88;;;;;;;6.11;100.00;101378.22;4949779;29;20762;-68
2022/04/05 06:20:29;;;;;;;6.57;0.80;;;;;;;6.12;100.00;101384.25;4950236;29;20252;-69
2022/04/05 06:23:00;;;;;;;6.47;1.10;;;;;;;6.07;100.00;101392.56;4950129;28;20055;-69
2022/04/05 06:25:30;;;;;;;5.60;1.23;;;;;;;6.03;100.00;101400.03;4950850;28;20075;-69
2022/04/05 06:28:01;;;;;;;4.50;1.35;;;;;;;6.05;100.00;101409.59;4953224;29;20043;-69
2022/04/05 06:30:30;;;;;;;2.80;0.63;;;;;;;6.10;100.00;101412.41;4953476;29;20051;-69
2022/04/05 06:33:07;;;;;;;7.63;1.10;;;;;;;6.04;100.00;101397.50;4953625;29;20573;-70
2022/04/05 06:35:35;;;;;;;1.80;0.52;;;;;;;5.97;100.00;101390.25;4953363;29;20090;-70
2022/04/05 06:38:06;;;;;;;3.35;0.50;;;;;;;5.93;100.00;101387.38;4953447;29;20055;-70
2022/04/05 06:40:34;;;;;;;4.20;0.82;;;;;;;5.95;100.00;101383.25;4953644;29;20537;-70
2022/04/05 06:43:03;;;;;;;4.15;0.88;;;;;;;5.97;100.00;101395.41;4952211;28;20051;-70
2022/04/05 06:45:32;;;;;;;4.80;0.80;;;;;;;5.96;100.00;101385.94;4952780;29;20051;-70
2022/04/05 06:48:00;;;;;;;1.00;0.40;;;;;;;5.97;100.00;101397.97;4952966;29;20490;-69
2022/04/05 06:50:29;;;;;;;3.65;0.80;;;;;;;6.03;100.00;101405.16;4953450;29;20043;-69
2022/04/05 06:53:00;;;;;;;5.72;1.17;;;;;;;6.07;100.00;101408.00;4952687;29;20102;-69
2022/04/05 06:55:31;;;;;;;2.85;1.20;;;;;;;6.10;100.00;101403.84;4953386;28;20671;-70
2022/04/05 06:57:59;;;;;;;1.80;0.60;;;;;;;6.07;100.00;101396.84;4952764;29;20489;-70
2022/04/05 07:00:28;;;;;;;5.25;1.27;;;;;;;6.01;100.00;101405.06;4953655;29;20059;-69
2022/04/05 07:02:58;;;;;;;4.50;0.80;;;;;;;5.97;100.00;101415.94;4952354;29;20489;-69
2022/04/05 07:05:27;;;;;;;5.20;1.20;;;;;;;5.92;100.00;101417.34;4952581;29;20047;-69
2022/04/05 07:07:56;;;;;;;6.57;0.90;;;;;;;5.94;100.00;101415.78;4953615;29;20055;-69
2022/04/05 07:10:25;;;;;;;4.47;1.23;;;;;;;5.94;100.00;101413.22;4956513;29;20517;-69
2022/04/05 07:12:55;;;;;;;6.50;1.17;;;;;;;5.97;100.00;101417.63;4952814;29;20493;-69
2022/04/05 07:15:23;;;;;;;5.38;0.75;;;;;;;5.96;100.00;101421.91;4934507;29;20047;-69
2022/04/05 07:17:52;;;;;;;6.00;0.70;;;;;;;5.92;100.00;101419.91;4933713;29;20111;-69
2022/04/05 07:20:20;;;;;;;3.15;0.88;;;;;;;5.95;100.00;101435.50;4933636;29;20126;-69
2022/04/05 07:22:50;;;;;;;4.50;0.70;;;;;;;5.95;100.00;101442.34;4933926;28;20079;-69
2022/04/05 07:25:20;;;;;;;6.70;1.50;;;;;;;5.95;100.00;101448.34;4933243;29;20501;-69
2022/04/05 07:27:49;;;;;;;6.60;0.95;;;;;;;5.94;100.00;101449.16;4939190;29;20053;-69
2022/04/05 07:30:20;;;;;;;5.25;1.00;;;;;;;5.92;100.00;101445.59;4952477;29;20110;-69
2022/04/05 07:32:49;;;;;;;2.78;0.60;;;;;;;5.86;100.00;101434.94;4952255;29;20051;-69
2022/04/05 07:35:19;;;;;;;8.88;1.08;;;;;;;5.91;100.00;101446.41;4952113;29;20078;-70
2022/04/05 07:37:47;;;;;;;3.65;1.33;;;;;;;5.83;100.00;101450.19;4950942;28;20058;-71
2022/04/05 07:40:16;;;;;;;6.57;0.77;;;;;;;5.70;100.00;101456.25;4952078;29;20130;-70
2022/04/05 07:42:46;;;;;;;5.78;0.80;;;;;;;5.64;100.00;101472.19;4951574;28;20579;-69
2022/04/05 07:45:18;;;;;;;5.88;0.88;;;;;;;5.62;100.00;101472.88;4952000;29;20055;-69
2022/04/05 07:47:46;;;;;;;4.15;0.95;;;;;;;5.64;100.00;101477.31;4951965;29;20048;-70
2022/04/05 07:50:15;;;;;;;5.97;0.88;;;;;;;5.61;100.00;101476.22;4951716;29;20505;-69
2022/04/05 07:52:45;;;;;;;4.47;0.75;;;;;;;5.68;100.00;101488.69;4951989;29;20058;-69
2022/04/05 07:55:13;;;;;;;3.10;0.88;;;;;;;5.66;100.00;101493.72;4951829;29;20055;-69
2022/04/05 07:57:45;;;;;;;6.93;1.38;;;;;;;5.67;100.00;101508.31;4951675;28;20058;-69
2022/04/05 08:00:15;;;;;;;3.33;0.47;;;;;;;5.60;100.00;101498.44;4952360;29;20174;-69
2022/04/05 08:02:45;;;;;;;1.85;0.93;;;;;;;5.57;100.00;101488.00;4951397;29;20317;-68
2022/04/05 08:05:14;;;;;;;4.03;0.85;;;;;;;5.56;100.00;101496.47;4951874;29;20047;-69
2022/04/05 08:07:43;;;;;;;4.97;1.15;;;;;;;5.60;100.00;101506.16;4951970;29;20137;-68
2022/04/05 08:10:13;;;;;;;7.82;1.00;;;;;;;5.56;100.00;101504.19;4953533;29;20655;-69
2022/04/05 08:12:42;;;;;;;6.65;1.30;;;;;;;5.46;100.00;101499.28;4952509;29;20062;-69
2022/04/05 08:15:12;;;;;;;5.90;1.20;;;;;;;5.40;100.00;101511.72;4952238;29;20543;-70
2022/04/05 08:17:40;;;;;;;3.72;1.00;;;;;;;5.37;100.00;101506.41;4951969;29;20101;-69
2022/04/05 08:20:12;;;;;;;3.78;1.48;;;;;;;5.37;100.00;101511.56;4951699;29;20087;-69
2022/04/05 08:22:41;;;;;;;4.32;1.05;;;;;;;5.38;100.00;101514.22;4951477;28;20126;-70
2022/04/05 08:25:11;;;;;;;8.55;1.30;;;;;;;5.39;100.00;101522.81;4951238;29;20087;-70
2022/04/05 08:27:39;;;;;;;4.75;0.93;;;;;;;5.36;100.00;101520.03;4951007;29;20047;-70
2022/04/05 08:30:10;;;;;;;4.93;1.00;;;;;;;5.38;100.00;101518.44;4950658;29;20047;-69
2022/04/05 08:32:42;;;;;;;3.97;0.73;;;;;;;5.38;100.00;101521.00;4950675;29;20051;-69
2022/04/05 08:35:13;;;;;;;3.05;1.00;;;;;;;5.42;100.00;101526.44;4950897;29;20043;-71
2022/04/05 08:37:42;;;;;;;5.22;1.13;;;;;;;5.45;100.00;101529.22;4951214;29;20097;-70
2022/04/05 08:40:12;;;;;;;3.35;0.70;;;;;;;5.52;100.00;101538.19;4951032;29;20106;-70
2022/04/05 08:42:43;;;;;;;6.78;0.90;;;;;;;5.55;100.00;101540.06;4950323;28;20111;-70
2022/04/05 08:45:13;;;;;;;5.53;0.80;;;;;;;5.54;100.00;101539.13;4950909;29;20134;-70
2022/04/05 08:47:46;;;;;;;1.20;0.70;;;;;;;5.61;100.00;101548.13;4951119;29;20663;-71
2022/04/05 08:50:18;;;;;;;4.50;1.27;;;;;;;5.62;100.00;101539.63;4950581;29;20087;-70
2022/04/05 08:52:47;;;;;;;7.63;1.08;;;;;;;5.63;100.00;101544.84;4950883;29;20090;-69
2022/04/05 08:55:17;;;;;;;6.10;0.82;;;;;;;5.60;100.00;101547.22;4950413;29;20531;-69
2022/04/05 08:57:47;;;;;;;4.03;0.98;;;;;;;5.63;100.00;101551.66;4951052;28;20561;-69
2022/04/05 09:00:19;;;;;;;2.78;0.50;;;;;;;5.67;100.00;101564.78;4951416;29;20051;-68
2022/04/05 09:02:55;;;;;;;5.90;1.27;;;;;;;5.69;100.00;101574.28;4950482;29;20552;-70
2022/04/05 09:05:34;;;;;;;4.57;1.02;;;;;;;5.70;100.00;101571.78;4950972;29;20047;-69
2022/04/05 09:08:17;;;;;;;7.22;1.60;;;;;;;5.72;100.00;101575.34;4951329;29;20079;-69
2022/04/05 09:10:47;;;;;;;4.65;1.27;;;;;;;5.72;100.00;101577.91;4953570;29;20131;-69
2022/04/05 09:13:27;;;;;;;8.38;0.93;;;;;;;5.74;100.00;101580.59;4951796;29;20147;-69
2022/04/05 09:15:58;;;;;;;5.70;1.20;;;;;;;5.72;100.00;101587.31;4950530;29;20055;-70
2022/04/05 09:18:34;;;;;;;4.32;0.98;;;;;;;5.71;100.00;101595.81;4950732;29;20630;-69
2022/04/05 09:21:05;;;;;;;6.50;1.20;;;;;;;5.74;100.00;101604.56;4950933;29;20047;-69
2022/04/05 09:23:42;;;;;;;3.78;1.15;;;;;;;5.78;100.00;101623.66;4951131;28;20055;-68
2022/04/05 09:26:13;;;;;;;4.93;1.17;;;;;;;5.81;100.00;101628.97;4950032;29;20047;-69
2022/04/05 09:28:42;;;;;;;7.53;0.70;;;;;;;5.82;100.00;101635.91;4949850;29;20067;-70
2022/04/05 09:31:12;;;;;;;2.13;0.85;;;;;;;5.88;100.00;101651.66;4950213;29;20106;-69
2022/04/05 09:33:42;;;;;;;7.63;1.23;;;;;;;5.89;100.00;101661.16;4949878;29;20083;-69
2022/04/05 09:36:14;;;;;;;5.38;0.93;;;;;;;5.94;100.00;101669.16;4949503;29;20481;-69
2022/04/05 09:38:45;;;;;;;9.90;1.27;;;;;;;5.96;100.00;101683.03;4949948;29;20102;-68
2022/04/05 09:41:16;;;;;;;2.72;0.90;;;;;;;6.01;100.00;101684.19;4950725;29;20050;-69
2022/04/05 09:43:57;;;;;;;6.07;1.08;;;;;;;6.05;100.00;101679.34;4949775;28;20106;-70
2022/04/05 09:46:25;;;;;;;3.25;1.20;;;;;;;6.06;100.00;101693.06;4950182;29;20126;-69
2022/04/05 09:49:08;;;;;;;5.63;1.52;;;;;;;6.10;100.00;101689.03;4950074;29;20502;-69
2022/04/05 09:51:41;;;;;;;19.08;1.48;;;;;;;6.13;100.00;101689.22;4950259;29;20058;-71
2022/04/05 09:54:22;;;;;;;7.68;1.00;;;;;;;6.17;100.00;101691.19;4949503;29;20050;-69
2022/04/05 09:56:51;;;;;;;6.57;1.27;;;;;;;6.22;100.00;101676.94;4950011;29;20070;-69
2022/04/05 09:59:22;;;;;;;8.48;1.35;;;;;;;6.25;100.00;101682.25;4949963;28;20836;-69
2022/04/05 10:01:56;;;;;;;6.90;1.95;;;;;;;6.27;100.00;101683.25;4953232;29;20465;-70
2022/04/05 10:04:25;;;;;;;7.15;1.33;;;;;;;6.31;100.00;101690.34;4953829;29;20497;-70
2022/04/05 10:06:55;;;;;;;15.27;1.55;;;;;;;6.32;100.00;101693.81;4953678;29;20047;-70
2022/04/05 10:09:25;;;;;;;10.02;1.80;;;;;;;6.32;100.00;101689.53;4950839;29;20055;-70
2022/04/05 10:11:55;;;;;;;6.93;1.02;;;;;;;6.36;100.00;101694.09;4953962;29;20533;-68
2022/04/05 10:14:25;;;;;;;2.92;0.98;;;;;;;6.38;100.00;101689.94;4953717;29;20051;-69
2022/04/05 10:16:54;;;;;;;10.40;1.38;;;;;;;6.39;100.00;101696.88;4953394;29;20043;-69
2022/04/05 10:19:23;;;;;;;7.68;0.98;;;;;;;6.37;100.00;101688.16;4953689;29;20509;-69
2022/04/05 10:22:00;;;;;;;6.88;0.90;;;;;;;6.38;100.00;101697.63;4953142;29;20054;-69
2022/04/05 10:24:30;;;;;;;8.57;1.20;;;;;;;6.35;100.00;101696.59;4953479;29;20517;-70
2022/04/05 10:26:59;;;;;;;8.27;1.48;;;;;;;6.35;100.00;101706.88;4934187;29;20083;-70
2022/04/05 10:29:28;;;;;;;4.82;0.93;;;;;;;6.32;100.00;101712.66;4938954;29;20110;-69
2022/04/05 10:32:04;;;;;;;4.22;1.33;;;;;;;6.27;100.00;101719.22;4946784;29;20043;-68
2022/04/05 10:34:43;;;;;;;3.92;0.85;;;;;;;6.21;100.00;101719.75;4952887;29;20079;-69
2022/04/05 10:37:16;;;;;;;2.58;0.60;;;;;;;6.21;100.00;101739.41;4953229;29;20055;-69
2022/04/05 10:40:06;;;;;;;8.20;1.10;;;;;;;6.21;100.00;101734.28;4952794;29;20065;-69
2022/04/05 10:42:37;;;;;;;5.30;1.77;;;;;;;6.21;100.00;101740.31;4953201;28;20047;-68
2022/04/05 10:45:16;;;;;;;5.45;1.40;;;;;;;6.20;100.00;101746.22;4953113;29;20055;-69
2022/04/05 10:48:16;;;;;;;4.55;0.88;;;;;;;6.25;100.00;101759.34;4952933;29;20591;-69
2022/04/05 10:50:46;;;;;;;5.40;0.82;;;;;;;6.27;100.00;101774.06;4874539;29;20085;-69
2022/04/05 10:53:21;;;;;;;3.50;0.70;;;;;;;6.29;100.00;101776.75;4937948;29;20114;-69
2022/04/05 10:56:14;;;;;;;6.03;1.20;;;;;;;6.33;100.00;101778.72;4952589;29;20130;-69
2022/04/05 10:58:58;;;;;;;5.43;1.02;;;;;;;6.36;100.00;101786.63;4952610;29;20087;-70
2022/04/05 11:01:39;;;;;;;8.68;1.30;;;;;;;6.37;100.00;101787.50;4951940;29;20047;-68
2022/04/05 11:04:31;;;;;;;5.97;1.20;;;;;;;6.35;100.00;101784.84;4952622;29;20784;-69
2022/04/05 11:07:13;;;;;;;4.05;1.05;;;;;;;6.31;100.00;101788.03;4955651;29;20055;-68
2022/04/05 11:09:50;;;;;;;3.80;1.30;;;;;;;6.29;100.00;101787.03;4953338;29;20074;-69
2022/04/05 11:12:22;;;;;;;5.80;0.88;;;;;;;6.21;100.00;101780.53;4951663;28;20051;-70
2022/04/05 11:14:54;;;;;;;3.88;1.25;;;;;;;6.15;100.00;101783.59;4952287;29;20058;-68
2022/04/05 11:17:24;;;;;;;8.00;1.20;;;;;;;6.07;100.00;101783.09;4952694;29;20047;-68
2022/04/05 11:19:54;;;;;;;5.10;1.55;;;;;;;6.06;100.00;101780.44;4952171;29;20146;-69
2022/04/05 11:22:36;;;;;;;1.10;0.47;;;;;;;5.98;100.00;101776.47;4947083;28;20615;-70
2022/04/05 11:25:09;;;;;;;3.53;0.90;;;;;;;5.91;100.00;101775.19;4952042;29;20051;-70
2022/04/05 11:27:44;;;;;;;;;;;;;;;5.84;100.00;101780.69;4952913;29;20648;-70
2022/04/05 11:30:41;;;;;;;7.10;0.80;;;;;;;5.81;100.00;101793.34;4952699;29;19926;-68
2022/04/05 11:33:22;;;;;;;4.53;0.70;;;;;;;5.75;100.00;101791.28;4952004;29;20134;-69
2022/04/05 11:35:52;;;;;;;2.88;0.77;;;;;;;5.75;100.00;101798.97;4952239;29;20055;-69
2022/04/05 11:38:31;;;;;;;2.08;0.55;;;;;;;5.73;100.00;101815.06;4951902;29;20053;-69
2022/04/05 11:41:05;;;;;;;2.38;1.00;;;;;;;5.70;100.00;101822.56;4943711;29;20097;-69
2022/04/05 11:43:35;;;;;;;2.97;0.60;;;;;;;5.68;100.00;101840.44;4951958;28;20058;-68
2022/04/05 11:46:06;;;;;;;8.57;1.05;;;;;;;5.70;100.00;101835.41;4952351;29;20054;-68